sensor_id;sensor_type;location;lat;lon;timestamp;P1;durP1;ratioP1;P2;durP2;ratioP2
3177;SDS011;38141;42.666;23.344;2023-07-31T00:02:12;5.13;;;4.63;;
3177;SDS011;38141;42.666;23.344;2023-07-31T00:04:38;5.20;;;4.33;;
3177;SDS011;38141;42.666;23.344;2023-07-31T00:07:05;4.97;;;4.53;;
3177;SDS011;38141;42.666;23.344;2023-07-31T00:09:31;5.20;;;4.43;;
3177;SDS011;38141;42.666;23.344;2023-07-31T00:11:58;6.77;;;4.80;;
3177;SDS011;38141;42.666;23.344;2023-07-31T00:14:24;4.97;;;4.50;;
3177;SDS011;38141;42.666;23.344;2023-07-31T00:16:52;4.87;;;4.37;;
3177;SDS011;38141;42.666;23.344;2023-07-31T00:19:19;4.97;;;4.47;;
3177;SDS011;38141;42.666;23.344;2023-07-31T00:21:45;4.70;;;4.30;;
3177;SDS011;38141;42.666;23.344;2023-07-31T00:24:12;5.23;;;4.73;;
3177;SDS011;38141;42.666;23.344;2023-07-31T00:26:38;4.57;;;4.13;;
3177;SDS011;38141;42.666;23.344;2023-07-31T00:29:05;4.60;;;4.10;;
3177;SDS011;38141;42.666;23.344;2023-07-31T00:31:31;5.40;;;4.90;;
3177;SDS011;38141;42.666;23.344;2023-07-31T00:33:59;5.70;;;5.10;;
3177;SDS011;38141;42.666;23.344;2023-07-31T00:36:25;6.00;;;5.40;;
3177;SDS011;38141;42.666;23.344;2023-07-31T00:38:52;5.93;;;5.33;;
3177;SDS011;38141;42.666;23.344;2023-07-31T00:41:18;5.77;;;5.17;;
3177;SDS011;38141;42.666;23.344;2023-07-31T00:43:45;6.20;;;5.43;;
3177;SDS011;38141;42.666;23.344;2023-07-31T00:46:11;8.20;;;6.10;;
3177;SDS011;38141;42.666;23.344;2023-07-31T00:48:38;7.97;;;6.10;;
3177;SDS011;38141;42.666;23.344;2023-07-31T00:51:06;8.30;;;6.60;;
3177;SDS011;38141;42.666;23.344;2023-07-31T00:53:34;6.77;;;6.03;;
3177;SDS011;38141;42.666;23.344;2023-07-31T00:56:00;7.30;;;6.20;;
3177;SDS011;38141;42.666;23.344;2023-07-31T00:58:27;7.50;;;6.57;;
3177;SDS011;38141;42.666;23.344;2023-07-31T01:00:54;6.80;;;6.10;;
3177;SDS011;38141;42.666;23.344;2023-07-31T01:03:20;9.43;;;7.17;;
3177;SDS011;38141;42.666;23.344;2023-07-31T01:05:49;9.37;;;7.30;;
3177;SDS011;38141;42.666;23.344;2023-07-31T01:08:21;8.53;;;7.63;;
3177;SDS011;38141;42.666;23.344;2023-07-31T01:10:50;8.67;;;7.77;;
3177;SDS011;38141;42.666;23.344;2023-07-31T01:13:21;10.00;;;7.90;;
3177;SDS011;38141;42.666;23.344;2023-07-31T01:15:46;11.17;;;9.30;;
3177;SDS011;38141;42.666;23.344;2023-07-31T01:18:13;11.27;;;9.87;;
3177;SDS011;38141;42.666;23.344;2023-07-31T01:20:40;11.33;;;10.13;;
3177;SDS011;38141;42.666;23.344;2023-07-31T01:23:22;11.40;;;9.90;;
3177;SDS011;38141;42.666;23.344;2023-07-31T01:25:58;11.43;;;10.23;;
3177;SDS011;38141;42.666;23.344;2023-07-31T01:28:27;12.40;;;10.47;;
3177;SDS011;38141;42.666;23.344;2023-07-31T01:30:56;14.10;;;11.63;;
3177;SDS011;38141;42.666;23.344;2023-07-31T01:33:24;14.40;;;11.80;;
3177;SDS011;38141;42.666;23.344;2023-07-31T01:35:50;14.43;;;11.83;;
3177;SDS011;38141;42.666;23.344;2023-07-31T01:38:20;13.93;;;12.40;;
3177;SDS011;38141;42.666;23.344;2023-07-31T01:40:46;17.90;;;12.97;;
3177;SDS011;38141;42.666;23.344;2023-07-31T01:43:18;18.33;;;13.30;;
3177;SDS011;38141;42.666;23.344;2023-07-31T01:45:44;16.80;;;14.30;;
3177;SDS011;38141;42.666;23.344;2023-07-31T01:48:11;17.80;;;13.80;;
3177;SDS011;38141;42.666;23.344;2023-07-31T01:50:37;19.60;;;15.93;;
3177;SDS011;38141;42.666;23.344;2023-07-31T01:53:04;23.53;;;17.20;;
3177;SDS011;38141;42.666;23.344;2023-07-31T01:55:30;20.90;;;16.50;;
3177;SDS011;38141;42.666;23.344;2023-07-31T01:57:57;20.07;;;16.73;;
3177;SDS011;38141;42.666;23.344;2023-07-31T02:00:25;22.77;;;17.43;;
3177;SDS011;38141;42.666;23.344;2023-07-31T02:02:51;23.73;;;17.30;;
3177;SDS011;38141;42.666;23.344;2023-07-31T02:05:18;23.60;;;18.30;;
3177;SDS011;38141;42.666;23.344;2023-07-31T02:07:44;24.53;;;18.33;;
3177;SDS011;38141;42.666;23.344;2023-07-31T02:10:11;24.93;;;18.40;;
3177;SDS011;38141;42.666;23.344;2023-07-31T02:12:37;26.57;;;18.63;;
3177;SDS011;38141;42.666;23.344;2023-07-31T02:15:04;23.10;;;18.30;;
3177;SDS011;38141;42.666;23.344;2023-07-31T02:17:32;23.10;;;17.80;;
3177;SDS011;38141;42.666;23.344;2023-07-31T02:19:58;29.50;;;19.70;;
3177;SDS011;38141;42.666;23.344;2023-07-31T02:22:25;26.57;;;19.60;;
3177;SDS011;38141;42.666;23.344;2023-07-31T02:24:51;26.50;;;19.90;;
3177;SDS011;38141;42.666;23.344;2023-07-31T02:27:18;24.73;;;19.40;;
3177;SDS011;38141;42.666;23.344;2023-07-31T02:29:44;26.63;;;19.67;;
3177;SDS011;38141;42.666;23.344;2023-07-31T02:32:11;26.23;;;20.10;;
3177;SDS011;38141;42.666;23.344;2023-07-31T02:34:39;27.53;;;21.30;;
3177;SDS011;38141;42.666;23.344;2023-07-31T02:37:05;29.33;;;21.20;;
3177;SDS011;38141;42.666;23.344;2023-07-31T02:39:32;29.20;;;20.50;;
3177;SDS011;38141;42.666;23.344;2023-07-31T02:41:59;26.43;;;20.00;;
3177;SDS011;38141;42.666;23.344;2023-07-31T02:44:25;28.00;;;19.53;;
3177;SDS011;38141;42.666;23.344;2023-07-31T02:46:52;28.10;;;21.10;;
3177;SDS011;38141;42.666;23.344;2023-07-31T02:49:18;25.90;;;19.90;;
3177;SDS011;38141;42.666;23.344;2023-07-31T02:51:46;26.43;;;19.97;;
3177;SDS011;38141;42.666;23.344;2023-07-31T02:54:13;25.80;;;19.20;;
3177;SDS011;38141;42.666;23.344;2023-07-31T02:56:39;28.30;;;20.60;;
3177;SDS011;38141;42.666;23.344;2023-07-31T02:59:06;25.90;;;19.70;;
3177;SDS011;38141;42.666;23.344;2023-07-31T03:01:32;28.00;;;19.90;;
3177;SDS011;38141;42.666;23.344;2023-07-31T03:03:59;25.93;;;19.43;;
3177;SDS011;38141;42.666;23.344;2023-07-31T03:06:25;30.10;;;21.00;;
3177;SDS011;38141;42.666;23.344;2023-07-31T03:08:54;24.20;;;18.40;;
3177;SDS011;38141;42.666;23.344;2023-07-31T03:11:20;28.30;;;20.43;;
3177;SDS011;38141;42.666;23.344;2023-07-31T03:13:47;24.83;;;19.60;;
3177;SDS011;38141;42.666;23.344;2023-07-31T03:16:13;27.17;;;19.40;;
3177;SDS011;38141;42.666;23.344;2023-07-31T03:18:40;26.77;;;19.97;;
3177;SDS011;38141;42.666;23.344;2023-07-31T03:21:07;30.57;;;20.17;;
3177;SDS011;38141;42.666;23.344;2023-07-31T03:23:33;28.00;;;20.67;;
3177;SDS011;38141;42.666;23.344;2023-07-31T03:26:06;26.47;;;19.63;;
3177;SDS011;38141;42.666;23.344;2023-07-31T03:28:33;26.90;;;19.83;;
3177;SDS011;38141;42.666;23.344;2023-07-31T03:30:59;25.63;;;19.80;;
3177;SDS011;38141;42.666;23.344;2023-07-31T03:33:26;23.50;;;18.90;;
3177;SDS011;38141;42.666;23.344;2023-07-31T03:35:52;26.97;;;20.30;;
3177;SDS011;38141;42.666;23.344;2023-07-31T03:38:19;27.43;;;20.10;;
3177;SDS011;38141;42.666;23.344;2023-07-31T03:40:46;29.60;;;20.80;;
3177;SDS011;38141;42.666;23.344;2023-07-31T03:43:15;25.67;;;19.60;;
3177;SDS011;38141;42.666;23.344;2023-07-31T03:45:41;27.80;;;19.60;;
3177;SDS011;38141;42.666;23.344;2023-07-31T03:48:08;28.00;;;20.20;;
3177;SDS011;38141;42.666;23.344;2023-07-31T03:50:34;30.70;;;20.13;;
3177;SDS011;38141;42.666;23.344;2023-07-31T03:53:01;29.10;;;20.03;;
3177;SDS011;38141;42.666;23.344;2023-07-31T03:55:27;26.83;;;20.10;;
3177;SDS011;38141;42.666;23.344;2023-07-31T03:57:54;28.60;;;20.87;;
3177;SDS011;38141;42.666;23.344;2023-07-31T04:00:22;28.03;;;20.23;;
3177;SDS011;38141;42.666;23.344;2023-07-31T04:02:48;26.23;;;18.80;;
3177;SDS011;38141;42.666;23.344;2023-07-31T04:05:15;30.30;;;20.30;;
3177;SDS011;38141;42.666;23.344;2023-07-31T04:07:41;27.00;;;20.53;;
3177;SDS011;38141;42.666;23.344;2023-07-31T04:10:08;28.43;;;19.73;;
3177;SDS011;38141;42.666;23.344;2023-07-31T04:12:34;28.10;;;20.43;;
3177;SDS011;38141;42.666;23.344;2023-07-31T04:15:01;30.90;;;21.30;;
3177;SDS011;38141;42.666;23.344;2023-07-31T04:17:29;29.13;;;20.13;;
3177;SDS011;38141;42.666;23.344;2023-07-31T04:19:55;33.80;;;21.03;;
3177;SDS011;38141;42.666;23.344;2023-07-31T04:22:22;27.83;;;20.90;;
3177;SDS011;38141;42.666;23.344;2023-07-31T04:24:48;31.70;;;21.50;;
3177;SDS011;38141;42.666;23.344;2023-07-31T04:27:15;27.33;;;19.20;;
3177;SDS011;38141;42.666;23.344;2023-07-31T04:29:41;30.93;;;21.20;;
3177;SDS011;38141;42.666;23.344;2023-07-31T04:32:09;26.90;;;19.47;;
3177;SDS011;38141;42.666;23.344;2023-07-31T04:34:37;28.47;;;20.33;;
3177;SDS011;38141;42.666;23.344;2023-07-31T04:37:03;31.33;;;21.40;;
3177;SDS011;38141;42.666;23.344;2023-07-31T04:39:30;27.33;;;19.87;;
3177;SDS011;38141;42.666;23.344;2023-07-31T04:41:56;33.03;;;21.80;;
3177;SDS011;38141;42.666;23.344;2023-07-31T04:44:23;29.40;;;20.20;;
3177;SDS011;38141;42.666;23.344;2023-07-31T04:46:49;30.23;;;19.53;;
3177;SDS011;38141;42.666;23.344;2023-07-31T04:49:16;29.00;;;18.87;;
3177;SDS011;38141;42.666;23.344;2023-07-31T04:51:44;28.50;;;19.20;;
3177;SDS011;38141;42.666;23.344;2023-07-31T04:54:10;27.33;;;20.20;;
3177;SDS011;38141;42.666;23.344;2023-07-31T04:56:40;30.90;;;21.10;;
3177;SDS011;38141;42.666;23.344;2023-07-31T04:59:06;26.20;;;19.80;;
3177;SDS011;38141;42.666;23.344;2023-07-31T05:01:33;26.90;;;19.77;;
3177;SDS011;38141;42.666;23.344;2023-07-31T05:03:59;35.50;;;24.50;;
3177;SDS011;38141;42.666;23.344;2023-07-31T05:06:26;29.23;;;20.10;;
3177;SDS011;38141;42.666;23.344;2023-07-31T05:08:54;26.63;;;19.70;;
3177;SDS011;38141;42.666;23.344;2023-07-31T05:11:20;26.87;;;19.97;;
3177;SDS011;38141;42.666;23.344;2023-07-31T05:13:46;28.47;;;20.03;;
3177;SDS011;38141;42.666;23.344;2023-07-31T05:16:13;27.93;;;19.57;;
3177;SDS011;38141;42.666;23.344;2023-07-31T05:18:39;24.17;;;17.53;;
3177;SDS011;38141;42.666;23.344;2023-07-31T05:21:09;24.87;;;18.53;;
3177;SDS011;38141;42.666;23.344;2023-07-31T05:23:35;23.87;;;18.50;;
3177;SDS011;38141;42.666;23.344;2023-07-31T05:26:04;20.80;;;16.37;;
3177;SDS011;38141;42.666;23.344;2023-07-31T05:28:30;35.17;;;25.47;;
3177;SDS011;38141;42.666;23.344;2023-07-31T05:30:58;23.77;;;15.43;;
3177;SDS011;38141;42.666;23.344;2023-07-31T05:33:25;21.37;;;16.17;;
3177;SDS011;38141;42.666;23.344;2023-07-31T05:35:51;18.27;;;14.20;;
3177;SDS011;38141;42.666;23.344;2023-07-31T05:38:18;22.13;;;16.60;;
3177;SDS011;38141;42.666;23.344;2023-07-31T05:40:44;19.97;;;14.00;;
3177;SDS011;38141;42.666;23.344;2023-07-31T05:43:12;17.13;;;13.20;;
3177;SDS011;38141;42.666;23.344;2023-07-31T05:45:39;16.93;;;13.40;;
3177;SDS011;38141;42.666;23.344;2023-07-31T05:48:06;16.80;;;12.43;;
3177;SDS011;38141;42.666;23.344;2023-07-31T05:50:32;14.03;;;12.43;;
3177;SDS011;38141;42.666;23.344;2023-07-31T05:52:59;13.33;;;11.23;;
3177;SDS011;38141;42.666;23.344;2023-07-31T05:55:26;15.60;;;11.00;;
3177;SDS011;38141;42.666;23.344;2023-07-31T05:57:53;12.90;;;10.93;;
3177;SDS011;38141;42.666;23.344;2023-07-31T06:00:21;12.63;;;10.60;;
3177;SDS011;38141;42.666;23.344;2023-07-31T06:02:47;14.13;;;9.97;;
3177;SDS011;38141;42.666;23.344;2023-07-31T06:05:14;13.43;;;10.13;;
3177;SDS011;38141;42.666;23.344;2023-07-31T06:07:40;13.90;;;10.50;;
3177;SDS011;38141;42.666;23.344;2023-07-31T06:10:07;16.93;;;11.37;;
3177;SDS011;38141;42.666;23.344;2023-07-31T06:12:34;13.03;;;11.00;;
3177;SDS011;38141;42.666;23.344;2023-07-31T06:15:01;12.43;;;11.13;;
3177;SDS011;38141;42.666;23.344;2023-07-31T06:17:29;13.88;;;8.52;;
3177;SDS011;38141;42.666;23.344;2023-07-31T06:19:56;10.10;;;7.18;;
3177;SDS011;38141;42.666;23.344;2023-07-31T06:22:22;9.82;;;7.03;;
3177;SDS011;38141;42.666;23.344;2023-07-31T06:24:49;7.20;;;4.90;;
3177;SDS011;38141;42.666;23.344;2023-07-31T06:27:15;8.38;;;5.30;;
3177;SDS011;38141;42.666;23.344;2023-07-31T06:29:42;13.68;;;8.85;;
3177;SDS011;38141;42.666;23.344;2023-07-31T06:32:08;6.13;;;4.55;;
3177;SDS011;38141;42.666;23.344;2023-07-31T06:34:36;6.72;;;4.43;;
3177;SDS011;38141;42.666;23.344;2023-07-31T06:37:03;7.28;;;5.05;;
3177;SDS011;38141;42.666;23.344;2023-07-31T06:39:29;6.88;;;5.40;;
3177;SDS011;38141;42.666;23.344;2023-07-31T06:41:56;5.78;;;5.05;;
3177;SDS011;38141;42.666;23.344;2023-07-31T06:44:22;5.47;;;4.78;;
3177;SDS011;38141;42.666;23.344;2023-07-31T06:46:49;10.68;;;5.03;;
3177;SDS011;38141;42.666;23.344;2023-07-31T06:49:15;6.05;;;5.22;;
3177;SDS011;38141;42.666;23.344;2023-07-31T06:51:43;6.53;;;4.53;;
3177;SDS011;38141;42.666;23.344;2023-07-31T06:54:10;9.32;;;5.18;;
3177;SDS011;38141;42.666;23.344;2023-07-31T06:56:37;5.57;;;4.75;;
3177;SDS011;38141;42.666;23.344;2023-07-31T06:59:03;5.20;;;4.70;;
3177;SDS011;38141;42.666;23.344;2023-07-31T07:01:30;4.82;;;4.43;;
3177;SDS011;38141;42.666;23.344;2023-07-31T07:03:56;5.07;;;4.30;;
3177;SDS011;38141;42.666;23.344;2023-07-31T07:06:23;4.47;;;4.07;;
3177;SDS011;38141;42.666;23.344;2023-07-31T07:08:50;4.78;;;4.30;;
3177;SDS011;38141;42.666;23.344;2023-07-31T07:11:17;6.97;;;3.97;;
3177;SDS011;38141;42.666;23.344;2023-07-31T07:13:44;5.07;;;3.40;;
3177;SDS011;38141;42.666;23.344;2023-07-31T07:16:10;4.03;;;3.30;;
3177;SDS011;38141;42.666;23.344;2023-07-31T07:18:37;4.03;;;3.60;;
3177;SDS011;38141;42.666;23.344;2023-07-31T07:21:03;5.18;;;3.50;;
3177;SDS011;38141;42.666;23.344;2023-07-31T07:23:29;4.78;;;3.58;;
3177;SDS011;38141;42.666;23.344;2023-07-31T07:25:57;6.63;;;3.45;;
3177;SDS011;38141;42.666;23.344;2023-07-31T07:28:24;5.55;;;3.60;;
3177;SDS011;38141;42.666;23.344;2023-07-31T07:30:51;5.32;;;3.53;;
3177;SDS011;38141;42.666;23.344;2023-07-31T07:33:18;3.85;;;3.00;;
3177;SDS011;38141;42.666;23.344;2023-07-31T07:35:44;5.20;;;3.60;;
3177;SDS011;38141;42.666;23.344;2023-07-31T07:38:11;4.80;;;3.35;;
3177;SDS011;38141;42.666;23.344;2023-07-31T07:40:38;5.97;;;3.75;;
3177;SDS011;38141;42.666;23.344;2023-07-31T07:43:06;7.07;;;3.95;;
3177;SDS011;38141;42.666;23.344;2023-07-31T07:45:33;5.18;;;3.70;;
3177;SDS011;38141;42.666;23.344;2023-07-31T07:47:59;5.75;;;4.28;;
3177;SDS011;38141;42.666;23.344;2023-07-31T07:50:26;5.13;;;3.92;;
3177;SDS011;38141;42.666;23.344;2023-07-31T07:52:52;4.65;;;3.55;;
3177;SDS011;38141;42.666;23.344;2023-07-31T07:55:19;8.73;;;3.92;;
3177;SDS011;38141;42.666;23.344;2023-07-31T07:57:45;4.57;;;4.18;;
3177;SDS011;38141;42.666;23.344;2023-07-31T08:00:13;5.43;;;4.47;;
3177;SDS011;38141;42.666;23.344;2023-07-31T08:02:40;3.22;;;2.92;;
3177;SDS011;38141;42.666;23.344;2023-07-31T08:05:06;5.80;;;3.40;;
3177;SDS011;38141;42.666;23.344;2023-07-31T08:07:33;6.68;;;3.20;;
3177;SDS011;38141;42.666;23.344;2023-07-31T08:10:00;3.88;;;3.47;;
3177;SDS011;38141;42.666;23.344;2023-07-31T08:12:26;5.38;;;3.42;;
3177;SDS011;38141;42.666;23.344;2023-07-31T08:14:53;4.03;;;3.63;;
3177;SDS011;38141;42.666;23.344;2023-07-31T08:17:20;4.25;;;3.20;;
3177;SDS011;38141;42.666;23.344;2023-07-31T08:19:47;5.22;;;3.55;;
3177;SDS011;38141;42.666;23.344;2023-07-31T08:22:13;4.28;;;3.85;;
3177;SDS011;38141;42.666;23.344;2023-07-31T08:24:40;7.15;;;3.60;;
3177;SDS011;38141;42.666;23.344;2023-07-31T08:27:07;3.88;;;3.47;;
3177;SDS011;38141;42.666;23.344;2023-07-31T08:29:33;5.20;;;4.68;;
3177;SDS011;38141;42.666;23.344;2023-07-31T08:32:00;6.75;;;6.15;;
3177;SDS011;38141;42.666;23.344;2023-07-31T08:34:27;4.88;;;4.00;;
3177;SDS011;38141;42.666;23.344;2023-07-31T08:36:54;3.90;;;3.60;;
3177;SDS011;38141;42.666;23.344;2023-07-31T08:39:21;4.70;;;4.13;;
3177;SDS011;38141;42.666;23.344;2023-07-31T08:41:47;4.43;;;3.92;;
3177;SDS011;38141;42.666;23.344;2023-07-31T08:44:15;5.68;;;3.45;;
3177;SDS011;38141;42.666;23.344;2023-07-31T08:46:42;7.30;;;3.60;;
3177;SDS011;38141;42.666;23.344;2023-07-31T08:49:09;5.43;;;3.90;;
3177;SDS011;38141;42.666;23.344;2023-07-31T08:51:38;4.30;;;3.70;;
3177;SDS011;38141;42.666;23.344;2023-07-31T08:54:05;6.57;;;3.70;;
3177;SDS011;38141;42.666;23.344;2023-07-31T08:56:32;3.67;;;3.33;;
3177;SDS011;38141;42.666;23.344;2023-07-31T08:58:59;3.78;;;3.47;;
3177;SDS011;38141;42.666;23.344;2023-07-31T09:01:28;3.72;;;3.35;;
3177;SDS011;38141;42.666;23.344;2023-07-31T09:03:55;3.95;;;3.22;;
3177;SDS011;38141;42.666;23.344;2023-07-31T09:06:23;3.95;;;3.55;;
3177;SDS011;38141;42.666;23.344;2023-07-31T09:08:51;11.05;;;9.02;;
3177;SDS011;38141;42.666;23.344;2023-07-31T09:11:18;5.88;;;4.07;;
3177;SDS011;38141;42.666;23.344;2023-07-31T09:13:45;3.50;;;2.83;;
3177;SDS011;38141;42.666;23.344;2023-07-31T09:16:12;3.83;;;3.47;;
3177;SDS011;38141;42.666;23.344;2023-07-31T09:18:52;3.80;;;3.50;;
3177;SDS011;38141;42.666;23.344;2023-07-31T09:21:19;3.67;;;3.38;;
3177;SDS011;38141;42.666;23.344;2023-07-31T09:23:46;4.85;;;3.25;;
3177;SDS011;38141;42.666;23.344;2023-07-31T09:26:17;3.63;;;3.33;;
3177;SDS011;38141;42.666;23.344;2023-07-31T09:28:54;3.38;;;3.08;;
3177;SDS011;38141;42.666;23.344;2023-07-31T09:31:31;3.78;;;3.33;;
3177;SDS011;38141;42.666;23.344;2023-07-31T09:33:57;3.60;;;3.08;;
3177;SDS011;38141;42.666;23.344;2023-07-31T09:36:26;4.88;;;3.10;;
3177;SDS011;38141;42.666;23.344;2023-07-31T09:38:55;3.25;;;2.92;;
3177;SDS011;38141;42.666;23.344;2023-07-31T09:41:23;3.40;;;2.80;;
3177;SDS011;38141;42.666;23.344;2023-07-31T09:43:53;3.10;;;2.90;;
3177;SDS011;38141;42.666;23.344;2023-07-31T09:46:20;3.20;;;3.00;;
3177;SDS011;38141;42.666;23.344;2023-07-31T09:48:46;6.57;;;3.58;;
3177;SDS011;38141;42.666;23.344;2023-07-31T09:51:13;4.40;;;2.90;;
3177;SDS011;38141;42.666;23.344;2023-07-31T09:53:39;3.17;;;2.97;;
3177;SDS011;38141;42.666;23.344;2023-07-31T09:56:06;6.32;;;3.45;;
3177;SDS011;38141;42.666;23.344;2023-07-31T09:58:34;3.42;;;3.13;;
3177;SDS011;38141;42.666;23.344;2023-07-31T10:01:02;2.90;;;2.70;;
3177;SDS011;38141;42.666;23.344;2023-07-31T10:03:28;3.10;;;2.83;;
3177;SDS011;38141;42.666;23.344;2023-07-31T10:05:56;3.88;;;3.33;;
3177;SDS011;38141;42.666;23.344;2023-07-31T10:08:25;3.08;;;2.88;;
3177;SDS011;38141;42.666;23.344;2023-07-31T10:10:54;3.13;;;2.83;;
3177;SDS011;38141;42.666;23.344;2023-07-31T10:13:21;2.95;;;2.40;;
3177;SDS011;38141;42.666;23.344;2023-07-31T10:15:49;4.35;;;2.45;;
3177;SDS011;38141;42.666;23.344;2023-07-31T10:18:16;5.18;;;2.45;;
3177;SDS011;38141;42.666;23.344;2023-07-31T10:20:44;5.50;;;2.70;;
3177;SDS011;38141;42.666;23.344;2023-07-31T10:23:11;6.65;;;3.08;;
3177;SDS011;38141;42.666;23.344;2023-07-31T10:25:38;5.13;;;2.70;;
3177;SDS011;38141;42.666;23.344;2023-07-31T10:28:05;3.67;;;2.55;;
3177;SDS011;38141;42.666;23.344;2023-07-31T10:30:32;3.28;;;2.45;;
3177;SDS011;38141;42.666;23.344;2023-07-31T10:33:01;5.15;;;2.58;;
3177;SDS011;38141;42.666;23.344;2023-07-31T10:35:28;2.88;;;2.67;;
3177;SDS011;38141;42.666;23.344;2023-07-31T10:37:55;3.40;;;2.85;;
3177;SDS011;38141;42.666;23.344;2023-07-31T10:40:23;2.97;;;2.67;;
3177;SDS011;38141;42.666;23.344;2023-07-31T10:42:51;3.22;;;2.50;;
3177;SDS011;38141;42.666;23.344;2023-07-31T10:45:25;2.42;;;2.20;;
3177;SDS011;38141;42.666;23.344;2023-07-31T10:47:57;3.88;;;2.92;;
3177;SDS011;38141;42.666;23.344;2023-07-31T10:50:26;3.65;;;2.72;;
3177;SDS011;38141;42.666;23.344;2023-07-31T10:52:53;2.70;;;2.50;;
3177;SDS011;38141;42.666;23.344;2023-07-31T10:55:30;2.95;;;2.60;;
3177;SDS011;38141;42.666;23.344;2023-07-31T10:57:57;2.67;;;2.47;;
3177;SDS011;38141;42.666;23.344;2023-07-31T11:00:25;2.75;;;2.55;;
3177;SDS011;38141;42.666;23.344;2023-07-31T11:03:01;2.92;;;2.63;;
3177;SDS011;38141;42.666;23.344;2023-07-31T11:05:42;3.20;;;2.90;;
3177;SDS011;38141;42.666;23.344;2023-07-31T11:08:12;4.05;;;2.40;;
3177;SDS011;38141;42.666;23.344;2023-07-31T11:10:38;2.88;;;2.60;;
3177;SDS011;38141;42.666;23.344;2023-07-31T11:13:05;2.60;;;2.30;;
3177;SDS011;38141;42.666;23.344;2023-07-31T11:15:32;2.80;;;2.45;;
3177;SDS011;38141;42.666;23.344;2023-07-31T11:17:59;2.70;;;2.40;;
3177;SDS011;38141;42.666;23.344;2023-07-31T11:20:29;7.00;;;5.72;;
3177;SDS011;38141;42.666;23.344;2023-07-31T11:22:57;6.90;;;6.15;;
3177;SDS011;38141;42.666;23.344;2023-07-31T11:25:24;3.97;;;2.50;;
3177;SDS011;38141;42.666;23.344;2023-07-31T11:27:50;3.08;;;2.40;;
3177;SDS011;38141;42.666;23.344;2023-07-31T11:30:19;4.93;;;2.60;;
3177;SDS011;38141;42.666;23.344;2023-07-31T11:32:45;4.25;;;2.83;;
3177;SDS011;38141;42.666;23.344;2023-07-31T11:35:12;4.28;;;2.60;;
3177;SDS011;38141;42.666;23.344;2023-07-31T11:37:39;4.78;;;2.60;;
3177;SDS011;38141;42.666;23.344;2023-07-31T11:40:08;4.25;;;2.35;;
3177;SDS011;38141;42.666;23.344;2023-07-31T11:42:35;3.10;;;2.78;;
3177;SDS011;38141;42.666;23.344;2023-07-31T11:45:02;4.10;;;3.20;;
3177;SDS011;38141;42.666;23.344;2023-07-31T11:47:29;2.92;;;2.67;;
3177;SDS011;38141;42.666;23.344;2023-07-31T11:49:56;3.70;;;2.97;;
3177;SDS011;38141;42.666;23.344;2023-07-31T11:52:23;7.47;;;3.33;;
3177;SDS011;38141;42.666;23.344;2023-07-31T11:54:50;4.07;;;3.13;;
3177;SDS011;38141;42.666;23.344;2023-07-31T11:57:19;7.90;;;3.00;;
3177;SDS011;38141;42.666;23.344;2023-07-31T11:59:48;5.55;;;3.20;;
3177;SDS011;38141;42.666;23.344;2023-07-31T12:02:14;7.40;;;6.55;;
3177;SDS011;38141;42.666;23.344;2023-07-31T12:04:41;3.63;;;3.33;;
3177;SDS011;38141;42.666;23.344;2023-07-31T12:07:08;3.67;;;3.25;;
3177;SDS011;38141;42.666;23.344;2023-07-31T12:09:34;4.38;;;3.05;;
3177;SDS011;38141;42.666;23.344;2023-07-31T12:12:01;5.70;;;3.05;;
3177;SDS011;38141;42.666;23.344;2023-07-31T12:14:30;4.47;;;3.40;;
3177;SDS011;38141;42.666;23.344;2023-07-31T12:16:58;13.25;;;4.28;;
3177;SDS011;38141;42.666;23.344;2023-07-31T12:19:25;5.25;;;3.85;;
3177;SDS011;38141;42.666;23.344;2023-07-31T12:21:53;6.68;;;4.40;;
3177;SDS011;38141;42.666;23.344;2023-07-31T12:24:19;3.67;;;3.35;;
3177;SDS011;38141;42.666;23.344;2023-07-31T12:26:46;4.82;;;4.32;;
3177;SDS011;38141;42.666;23.344;2023-07-31T12:29:13;9.68;;;5.10;;
3177;SDS011;38141;42.666;23.344;2023-07-31T12:31:42;6.57;;;5.80;;
3177;SDS011;38141;42.666;23.344;2023-07-31T12:34:14;6.38;;;5.80;;
3177;SDS011;38141;42.666;23.344;2023-07-31T12:36:41;9.13;;;6.72;;
3177;SDS011;38141;42.666;23.344;2023-07-31T12:39:08;6.07;;;5.47;;
3177;SDS011;38141;42.666;23.344;2023-07-31T12:41:35;6.15;;;4.53;;
3177;SDS011;38141;42.666;23.344;2023-07-31T12:44:03;5.72;;;5.05;;
3177;SDS011;38141;42.666;23.344;2023-07-31T12:46:30;7.35;;;5.28;;
3177;SDS011;38141;42.666;23.344;2023-07-31T12:48:58;5.05;;;4.55;;
3177;SDS011;38141;42.666;23.344;2023-07-31T12:51:24;4.97;;;4.40;;
3177;SDS011;38141;42.666;23.344;2023-07-31T12:53:51;5.10;;;4.60;;
3177;SDS011;38141;42.666;23.344;2023-07-31T12:56:17;6.70;;;5.10;;
3177;SDS011;38141;42.666;23.344;2023-07-31T12:58:44;5.43;;;4.93;;
3177;SDS011;38141;42.666;23.344;2023-07-31T13:01:10;9.55;;;5.57;;
3177;SDS011;38141;42.666;23.344;2023-07-31T13:03:37;7.15;;;5.90;;
3177;SDS011;38141;42.666;23.344;2023-07-31T13:06:05;10.68;;;6.05;;
3177;SDS011;38141;42.666;23.344;2023-07-31T13:08:32;6.72;;;5.43;;
3177;SDS011;38141;42.666;23.344;2023-07-31T13:10:58;8.07;;;5.82;;
3177;SDS011;38141;42.666;23.344;2023-07-31T13:13:25;7.57;;;6.20;;
3177;SDS011;38141;42.666;23.344;2023-07-31T13:15:51;8.50;;;6.22;;
3177;SDS011;38141;42.666;23.344;2023-07-31T13:18:17;6.68;;;5.93;;
3177;SDS011;38141;42.666;23.344;2023-07-31T13:20:44;10.38;;;6.25;;
3177;SDS011;38141;42.666;23.344;2023-07-31T13:23:12;6.97;;;6.28;;
3177;SDS011;38141;42.666;23.344;2023-07-31T13:25:38;6.78;;;6.15;;
3177;SDS011;38141;42.666;23.344;2023-07-31T13:28:05;18.13;;;11.23;;
3177;SDS011;38141;42.666;23.344;2023-07-31T13:30:31;7.30;;;5.80;;
3177;SDS011;38141;42.666;23.344;2023-07-31T13:32:58;9.52;;;6.00;;
3177;SDS011;38141;42.666;23.344;2023-07-31T13:35:24;15.45;;;5.80;;
3177;SDS011;38141;42.666;23.344;2023-07-31T13:37:51;6.32;;;5.57;;
3177;SDS011;38141;42.666;23.344;2023-07-31T13:40:19;6.43;;;5.50;;
3177;SDS011;38141;42.666;23.344;2023-07-31T13:42:45;9.65;;;5.25;;
3177;SDS011;38141;42.666;23.344;2023-07-31T13:45:13;5.38;;;4.70;;
3177;SDS011;38141;42.666;23.344;2023-07-31T13:47:39;5.55;;;4.60;;
3177;SDS011;38141;42.666;23.344;2023-07-31T13:50:06;7.35;;;5.15;;
3177;SDS011;38141;42.666;23.344;2023-07-31T13:52:33;5.60;;;5.10;;
3177;SDS011;38141;42.666;23.344;2023-07-31T13:54:59;10.15;;;8.45;;
3177;SDS011;38141;42.666;23.344;2023-07-31T13:57:27;6.32;;;5.72;;
3177;SDS011;38141;42.666;23.344;2023-07-31T13:59:54;8.10;;;5.10;;
3177;SDS011;38141;42.666;23.344;2023-07-31T14:02:21;5.63;;;4.80;;
3177;SDS011;38141;42.666;23.344;2023-07-31T14:04:48;5.63;;;4.88;;
3177;SDS011;38141;42.666;23.344;2023-07-31T14:07:15;9.80;;;4.80;;
3177;SDS011;38141;42.666;23.344;2023-07-31T14:09:42;6.00;;;5.40;;
3177;SDS011;38141;42.666;23.344;2023-07-31T14:12:09;6.72;;;4.72;;
3177;SDS011;38141;42.666;23.344;2023-07-31T14:14:37;5.40;;;4.82;;
3177;SDS011;38141;42.666;23.344;2023-07-31T14:17:05;6.55;;;4.70;;
3177;SDS011;38141;42.666;23.344;2023-07-31T14:19:32;6.13;;;4.88;;
3177;SDS011;38141;42.666;23.344;2023-07-31T14:21:58;6.45;;;4.60;;
3177;SDS011;38141;42.666;23.344;2023-07-31T14:24:25;4.85;;;4.40;;
3177;SDS011;38141;42.666;23.344;2023-07-31T14:26:51;6.57;;;5.43;;
3177;SDS011;38141;42.666;23.344;2023-07-31T14:29:18;5.78;;;5.03;;
3177;SDS011;38141;42.666;23.344;2023-07-31T14:31:46;5.70;;;5.10;;
3177;SDS011;38141;42.666;23.344;2023-07-31T14:34:13;8.45;;;5.10;;
3177;SDS011;38141;42.666;23.344;2023-07-31T14:36:39;6.63;;;4.88;;
3177;SDS011;38141;42.666;23.344;2023-07-31T14:39:05;5.75;;;5.22;;